Terminal Aerodrome Forecast
Issued by NWS

Home | Current Version | Previous Version | Text Only | Print | Product List | Glossary On
Versions: 1 2 3 4 5 6 7 8 9 10 11 12 13 14 15 16 17 18 19 20 21 22 23 24 25 26 27 28
000
FTUS46 KSGX 222323
TAFSAN
TAF
KSAN 222323Z 2300/2406 28009KT P6SM FEW040 SCT250
     FM230300 VRB05KT P6SM SCT020 BKN035
     FM231700 24007KT P6SM FEW025 SCT035
     FM232000 28009KT P6SM FEW035
     FM240200 VRB05KT P6SM FEW035=

USA.gov is the U.S. government's official web portal to all federal, state and local government web resources and services.